Time;durP1;ratioP1;P1;durP2;ratioP2;P2;SDS_P1;SDS_P2;PMS_P1;PMS_P2;Temp;Humidity;BMP_temperature;BMP_pressure;BME280_temperature;BME280_humidity;BME280_pressure;Samples;Min_cycle;Max_cycle;Signal;HPM_P1;HPM_P2
2022/09/22 00:01:23;;;;;;;7.22;5.92;;;;;;;10.44;78.79;99956.65;1687833;83;21016;-75
2022/09/22 00:03:52;;;;;;;8.03;5.37;;;;;;;10.45;78.86;99960.47;1694303;82;20953;-73
2022/09/22 00:06:21;;;;;;;5.95;5.35;;;;;;;10.48;78.96;99956.72;1701772;83;20967;-72
2022/09/22 00:08:50;;;;;;;6.83;5.87;;;;;;;10.47;79.00;99959.02;1707562;83;21442;-73
2022/09/22 00:11:27;;;;;;;9.33;6.25;;;;;;;10.46;79.13;99955.54;1716614;83;21923;-73
2022/09/22 00:13:59;;;;;;;7.12;6.40;;;;;;;10.48;79.24;99962.84;1716388;82;21384;-78
2022/09/22 00:16:31;;;;;;;8.28;6.03;;;;;;;10.49;79.30;99959.23;1712599;81;21008;-74
2022/09/22 00:18:58;;;;;;;6.40;5.60;;;;;;;10.53;79.31;99959.34;1696560;84;21007;-72
2022/09/22 00:21:29;;;;;;;7.60;6.03;;;;;;;10.52;79.35;99962.95;1714752;82;21094;-73
2022/09/22 00:23:56;;;;;;;8.03;6.10;;;;;;;10.54;79.35;99961.49;1689094;84;22492;-72
2022/09/22 00:26:23;;;;;;;6.47;5.87;;;;;;;10.55;79.40;99953.92;1676230;83;21412;-72
2022/09/22 00:28:50;;;;;;;9.58;6.12;;;;;;;10.58;79.42;99956.28;1686269;83;21029;-72
2022/09/22 00:31:20;;;;;;;7.58;6.00;;;;;;;10.61;79.42;99957.33;1676925;85;21012;-72
2022/09/22 00:33:47;;;;;;;7.78;6.00;;;;;;;10.64;79.39;99956.26;1721477;83;21500;-72
2022/09/22 00:36:14;;;;;;;9.35;5.85;;;;;;;10.64;79.33;99952.30;1675451;84;21904;-72
2022/09/22 00:38:41;;;;;;;7.70;6.20;;;;;;;10.63;79.38;99959.87;1695239;84;21407;-72
2022/09/22 00:41:10;;;;;;;7.12;6.03;;;;;;;10.61;79.42;99957.33;1701613;84;21504;-72
2022/09/22 00:43:37;;;;;;;8.50;5.78;;;;;;;10.62;79.46;99951.59;1700303;83;21054;-72
2022/09/22 00:46:13;;;;;;;7.62;5.55;;;;;;;10.63;79.49;99954.59;1688102;82;21029;-73
2022/09/22 00:48:44;;;;;;;6.53;5.62;;;;;;;10.63;79.53;99954.10;1699087;84;21941;-73
2022/09/22 00:51:12;;;;;;;9.38;6.78;;;;;;;10.65;79.54;99960.56;1701857;83;20971;-72
2022/09/22 00:53:39;;;;;;;6.95;6.20;;;;;;;10.68;79.51;99953.69;1697946;83;20974;-72
2022/09/22 00:56:23;;;;;;;8.10;6.20;;;;;;;10.71;79.50;99952.09;1700109;82;21007;-72
2022/09/22 00:58:58;;;;;;;7.30;5.97;;;;;;;10.73;79.44;99957.62;1690062;84;20951;-72
2022/09/22 01:01:24;;;;;;;9.18;5.75;;;;;;;10.75;79.37;99962.77;1716650;83;21834;-72
2022/09/22 01:03:51;;;;;;;7.50;5.92;;;;;;;10.76;79.27;99967.91;1716513;83;20957;-72
2022/09/22 01:06:23;;;;;;;6.97;5.78;;;;;;;10.76;79.21;99965.75;1733942;82;21016;-72
2022/09/22 01:08:51;;;;;;;9.40;5.87;;;;;;;10.76;79.18;99963.95;1722032;82;21402;-72
2022/09/22 01:11:19;;;;;;;6.67;5.80;;;;;;;10.74;79.16;99961.09;1714986;83;21044;-72
2022/09/22 01:14:14;;;;;;;7.45;6.10;;;;;;;10.74;79.17;99965.89;1651134;86;21981;-72
2022/09/22 01:17:22;;;;;;;8.20;6.33;;;;;;;10.71;79.16;99971.91;1676122;83;20986;-73
2022/09/22 01:20:11;;;;;;;9.33;6.20;;;;;;;10.65;79.14;99971.97;1687944;85;21054;-74
2022/09/22 01:23:09;;;;;;;9.23;6.17;;;;;;;10.60;79.18;99969.70;1706702;83;21038;-73
2022/09/22 01:25:41;;;;;;;10.05;6.65;;;;;;;10.56;79.20;99972.75;1692391;83;21542;-72
2022/09/22 01:28:46;;;;;;;9.18;6.28;;;;;;;10.54;79.29;99973.38;1682098;82;21799;-73
2022/09/22 01:32:00;;;;;;;7.28;5.90;;;;;;;10.54;79.35;99981.30;1698928;82;29105;-73
2022/09/22 01:34:38;;;;;;;9.35;6.78;;;;;;;10.52;79.40;99973.52;1691797;83;21010;-74
2022/09/22 01:37:26;;;;;;;7.85;5.92;;;;;;;10.52;79.46;99970.03;1674216;82;21111;-74
2022/09/22 01:40:01;;;;;;;8.10;6.30;;;;;;;10.51;79.58;99971.81;1684028;85;21036;-73
2022/09/22 01:42:40;;;;;;;7.58;6.47;;;;;;;10.54;79.62;99969.41;1716074;83;21849;-73
2022/09/22 01:45:21;;;;;;;9.08;5.78;;;;;;;10.54;79.58;99964.97;1680619;82;21023;-75
2022/09/22 01:47:58;;;;;;;9.58;6.30;;;;;;;10.55;79.56;99963.16;1688810;84;21012;-73
2022/09/22 01:50:45;;;;;;;6.45;5.47;;;;;;;10.52;79.56;99955.03;1705214;82;21043;-73
2022/09/22 01:53:14;;;;;;;9.33;5.28;;;;;;;10.53;79.56;99958.02;1657592;83;21155;-74
2022/09/22 01:55:45;;;;;;;7.08;5.47;;;;;;;10.54;79.68;99963.65;1694083;82;21925;-72
2022/09/22 01:58:19;;;;;;;6.87;5.33;;;;;;;10.56;79.67;99962.19;1694043;84;20973;-73
2022/09/22 02:00:58;;;;;;;6.17;5.45;;;;;;;10.56;79.69;99960.39;1707649;83;21551;-72
2022/09/22 02:03:51;;;;;;;6.50;5.40;;;;;;;10.58;79.66;99964.20;1678545;84;21049;-73
2022/09/22 02:06:34;;;;;;;6.35;5.25;;;;;;;10.59;79.69;99960.59;1656104;86;21038;-73
2022/09/22 02:09:09;;;;;;;5.60;5.00;;;;;;;10.60;79.65;99962.27;1674534;85;21889;-72
2022/09/22 02:11:36;;;;;;;5.95;4.97;;;;;;;10.59;79.57;99961.92;1653847;85;21497;-72
2022/09/22 02:14:03;;;;;;;5.62;5.03;;;;;;;10.57;79.60;99968.66;1695888;83;21403;-73
2022/09/22 02:16:30;;;;;;;7.37;4.70;;;;;;;10.58;79.55;99971.64;1691144;83;21007;-73
2022/09/22 02:19:09;;;;;;;6.30;5.05;;;;;;;10.57;79.50;99970.46;1683092;84;21512;-73
2022/09/22 02:21:37;;;;;;;6.08;4.60;;;;;;;10.53;79.48;99964.62;1688606;83;21861;-72
2022/09/22 02:24:04;;;;;;;7.60;5.05;;;;;;;10.53;79.54;99967.26;1673523;85;21073;-72
2022/09/22 02:26:33;;;;;;;5.20;4.70;;;;;;;10.52;79.51;99968.72;1655923;86;21049;-73
2022/09/22 02:29:08;;;;;;;7.53;4.50;;;;;;;10.53;79.56;99969.90;1672952;85;21069;-73
2022/09/22 02:31:35;;;;;;;5.42;4.80;;;;;;;10.52;79.51;99969.55;1666858;83;21558;-72
2022/09/22 02:34:03;;;;;;;7.90;4.60;;;;;;;10.53;79.56;99973.03;1675707;85;22592;-72
2022/09/22 02:36:51;;;;;;;7.25;4.92;;;;;;;10.52;79.56;99969.55;1675516;85;20987;-73
2022/09/22 02:39:33;;;;;;;6.72;4.47;;;;;;;10.51;79.52;99973.13;1673600;85;21064;-73
2022/09/22 02:42:27;;;;;;;5.85;4.62;;;;;;;10.50;79.52;99973.27;1669812;83;20991;-73
2022/09/22 02:45:18;;;;;;;6.10;5.37;;;;;;;10.47;79.53;99971.73;1660928;86;25818;-73
2022/09/22 02:47:53;;;;;;;7.00;4.87;;;;;;;10.44;79.58;99968.53;1709622;83;22634;-72
2022/09/22 02:50:21;;;;;;;5.20;4.70;;;;;;;10.41;79.63;99976.20;1683407;83;21074;-72
2022/09/22 02:52:51;;;;;;;9.95;5.53;;;;;;;10.40;79.69;99977.17;1700093;83;21008;-72
2022/09/22 02:55:18;;;;;;;7.08;5.85;;;;;;;10.39;79.71;99976.83;1688937;85;21022;-72
2022/09/22 02:57:44;;;;;;;8.18;6.35;;;;;;;10.38;79.74;99980.92;1714111;83;21110;-74
2022/09/22 03:00:12;;;;;;;8.23;6.30;;;;;;;10.37;79.77;99982.72;1700796;82;21853;-72
2022/09/22 03:02:39;;;;;;;6.55;5.92;;;;;;;10.37;79.81;99985.36;1745995;82;20992;-72
2022/09/22 03:05:06;;;;;;;7.00;5.58;;;;;;;10.36;79.80;99990.30;1707360;82;21042;-72
2022/09/22 03:07:34;;;;;;;9.58;6.00;;;;;;;10.35;79.84;99988.63;1701655;83;21079;-72
2022/09/22 03:10:01;;;;;;;7.87;5.83;;;;;;;10.36;79.87;99988.14;1714895;83;20980;-72
2022/09/22 03:12:29;;;;;;;7.08;5.20;;;;;;;10.34;79.86;99984.80;1714763;83;22337;-72
2022/09/22 03:14:55;;;;;;;6.60;5.83;;;;;;;10.33;79.87;99981.33;1705223;82;20996;-72
2022/09/22 03:17:22;;;;;;;9.05;5.83;;;;;;;10.32;79.91;99981.78;1688400;83;21444;-72
2022/09/22 03:19:49;;;;;;;6.08;5.33;;;;;;;10.33;79.95;99987.92;1712601;83;21479;-72
2022/09/22 03:22:15;;;;;;;6.87;5.45;;;;;;;10.33;80.03;99985.28;1716512;83;21016;-72
2022/09/22 03:24:42;;;;;;;7.53;5.35;;;;;;;10.31;80.12;99993.79;1707838;82;21936;-73
2022/09/22 03:27:10;;;;;;;6.17;5.58;;;;;;;10.33;80.06;99995.84;1696458;82;21114;-72
2022/09/22 03:29:36;;;;;;;9.08;5.80;;;;;;;10.33;80.03;100001.12;1711482;83;21016;-72
2022/09/22 03:32:02;;;;;;;6.83;5.90;;;;;;;10.31;80.08;99997.75;1711894;83;21079;-72
2022/09/22 03:34:29;;;;;;;6.55;5.67;;;;;;;10.34;80.13;100005.92;1712431;82;20948;-72
2022/09/22 03:36:56;;;;;;;6.47;5.45;;;;;;;10.35;80.08;99997.03;1735352;82;21911;-73
2022/09/22 03:39:22;;;;;;;8.68;5.47;;;;;;;10.36;80.04;99998.70;1674843;83;20952;-74
2022/09/22 03:41:49;;;;;;;8.03;5.60;;;;;;;10.36;80.01;99997.38;1687637;84;21458;-72
2022/09/22 03:44:16;;;;;;;6.12;5.53;;;;;;;10.35;80.08;99998.34;1687847;82;21477;-72
2022/09/22 03:46:43;;;;;;;8.83;5.65;;;;;;;10.37;80.09;99999.05;1689259;83;21012;-73
2022/09/22 03:49:10;;;;;;;8.10;5.30;;;;;;;10.36;80.10;100006.14;1683725;83;21978;-72
2022/09/22 03:51:37;;;;;;;8.58;5.30;;;;;;;10.36;80.12;100003.98;1717519;83;21036;-71
2022/09/22 03:54:04;;;;;;;7.17;5.47;;;;;;;10.36;80.11;100003.98;1687801;83;21020;-72
2022/09/22 03:56:30;;;;;;;7.22;5.37;;;;;;;10.35;80.07;99997.03;1690647;83;21467;-72
2022/09/22 03:58:57;;;;;;;9.15;5.03;;;;;;;10.36;80.09;99993.42;1686553;83;21041;-72
2022/09/22 04:01:23;;;;;;;5.60;4.97;;;;;;;10.36;80.11;100000.02;1710851;82;21933;-74
2022/09/22 04:03:50;;;;;;;7.95;5.03;;;;;;;10.36;80.09;99993.42;1705832;82;21043;-74
2022/09/22 04:06:17;;;;;;;8.93;5.05;;;;;;;10.33;80.06;99991.88;1676393;84;21560;-73
2022/09/22 04:08:43;;;;;;;7.20;4.80;;;;;;;10.31;80.12;99989.34;1681828;83;21019;-73
2022/09/22 04:11:09;;;;;;;6.20;4.75;;;;;;;10.32;80.21;99993.66;1679064;85;21036;-72
2022/09/22 04:13:37;;;;;;;5.85;4.72;;;;;;;10.32;80.25;99990.19;1677639;83;21051;-73
2022/09/22 04:16:05;;;;;;;9.50;6.10;;;;;;;10.30;80.30;99990.31;1696777;83;21007;-74
2022/09/22 04:18:31;;;;;;;8.15;5.40;;;;;;;10.30;80.35;99992.13;1692225;83;21052;-73
2022/09/22 04:20:58;;;;;;;5.15;4.62;;;;;;;10.32;80.40;99988.86;1669570;84;21027;-72
2022/09/22 04:23:25;;;;;;;8.20;5.08;;;;;;;10.36;80.42;99996.06;1688932;84;21164;-73
2022/09/22 04:25:53;;;;;;;5.83;4.97;;;;;;;10.35;80.29;99994.39;1693832;82;21028;-72
2022/09/22 04:28:20;;;;;;;6.75;5.25;;;;;;;10.31;80.34;99988.03;1696577;82;21043;-76
2022/09/22 04:30:48;;;;;;;7.15;4.90;;;;;;;10.35;80.42;99995.22;1714475;82;21067;-73
2022/09/22 04:33:15;;;;;;;6.33;4.67;;;;;;;10.38;80.42;100001.55;1700869;83;21047;-71
2022/09/22 04:35:41;;;;;;;7.22;5.50;;;;;;;10.41;80.37;99995.17;1696227;83;20959;-73
2022/09/22 04:38:09;;;;;;;5.83;5.08;;;;;;;10.41;80.32;99993.85;1687116;84;21782;-72
2022/09/22 04:40:36;;;;;;;7.80;4.58;;;;;;;10.40;80.25;99988.22;1709793;83;21062;-73
2022/09/22 04:43:03;;;;;;;6.97;4.90;;;;;;;10.39;80.21;99991.83;1696231;83;21032;-74
2022/09/22 04:45:29;;;;;;;6.40;4.85;;;;;;;10.38;80.19;99993.63;1689652;83;21047;-73
2022/09/22 04:47:56;;;;;;;7.50;4.40;;;;;;;10.38;80.16;99994.12;1709377;83;21068;-72
2022/09/22 04:50:22;;;;;;;7.35;5.03;;;;;;;10.37;80.17;99999.05;1690628;83;21924;-72
2022/09/22 04:52:52;;;;;;;7.17;5.33;;;;;;;10.37;80.20;99998.56;1690640;83;21039;-72
2022/09/22 04:55:19;;;;;;;5.65;4.70;;;;;;;10.38;80.06;99998.08;1707301;83;21514;-73
2022/09/22 04:57:54;;;;;;;6.78;4.65;;;;;;;10.37;79.99;100001.69;1686977;84;21025;-73
2022/09/22 05:00:23;;;;;;;5.70;4.42;;;;;;;10.33;79.92;99999.80;1667213;84;21612;-73
2022/09/22 05:02:50;;;;;;;6.97;4.40;;;;;;;10.29;79.80;100001.01;1661723;84;21924;-74
2022/09/22 05:05:16;;;;;;;8.58;4.65;;;;;;;10.25;79.78;100002.25;1679620;83;21032;-74
2022/09/22 05:07:45;;;;;;;5.35;4.83;;;;;;;10.20;79.74;100002.58;1684628;83;21054;-74
2022/09/22 05:10:12;;;;;;;9.33;5.10;;;;;;;10.16;79.69;100010.90;1709320;83;21051;-72
2022/09/22 05:12:40;;;;;;;7.87;5.08;;;;;;;10.12;79.69;100007.66;1703120;82;21039;-74
2022/09/22 05:15:09;;;;;;;6.58;4.83;;;;;;;10.11;79.74;100010.43;1674381;83;21911;-73
2022/09/22 05:17:35;;;;;;;6.12;5.05;;;;;;;10.10;79.68;100012.72;1675098;83;21053;-74
2022/09/22 05:20:05;;;;;;;5.75;4.92;;;;;;;10.07;79.67;100016.94;1675782;84;21047;-74
2022/09/22 05:22:31;;;;;;;7.97;5.22;;;;;;;10.07;79.67;100016.45;1678552;84;21254;-74
2022/09/22 05:24:59;;;;;;;5.72;5.10;;;;;;;10.07;79.65;100019.58;1690067;84;20987;-74
2022/09/22 05:27:26;;;;;;;10.15;4.85;;;;;;;10.08;79.69;100024.72;1690384;83;21481;-72
2022/09/22 05:29:52;;;;;;;7.05;5.30;;;;;;;10.11;79.73;100028.91;1662071;85;21445;-73
2022/09/22 05:32:19;;;;;;;7.90;4.90;;;;;;;10.13;79.75;100024.33;1644664;85;20999;-75
2022/09/22 05:34:46;;;;;;;5.67;5.05;;;;;;;10.18;79.79;100031.39;1689201;84;21106;-71
2022/09/22 05:37:12;;;;;;;8.63;5.10;;;;;;;10.20;79.81;100030.30;1707344;82;21432;-72
2022/09/22 05:39:39;;;;;;;6.85;5.20;;;;;;;10.24;79.80;100029.61;1664293;85;21911;-73
2022/09/22 05:42:07;;;;;;;7.85;5.30;;;;;;;10.27;79.83;100031.50;1669615;83;21014;-70
2022/09/22 05:44:34;;;;;;;7.15;5.55;;;;;;;10.32;79.84;100033.73;1695071;83;21021;-71
2022/09/22 05:47:00;;;;;;;7.55;6.00;;;;;;;10.37;79.80;100035.52;1690278;84;20958;-70
2022/09/22 05:49:27;;;;;;;8.48;5.08;;;;;;;10.41;79.71;100033.45;1689994;83;21041;-70
2022/09/22 05:51:56;;;;;;;6.03;5.40;;;;;;;10.45;79.72;100042.80;1692936;83;21940;-69
2022/09/22 05:54:23;;;;;;;6.30;5.03;;;;;;;10.50;79.67;100036.16;1690226;83;21120;-70
2022/09/22 05:56:50;;;;;;;6.45;5.72;;;;;;;10.53;79.64;100046.48;1687217;84;21015;-68
2022/09/22 05:59:17;;;;;;;6.25;5.60;;;;;;;10.59;79.68;100049.91;1692554;83;21086;-74
2022/09/22 06:01:43;;;;;;;6.00;5.40;;;;;;;10.65;79.65;100041.13;1651046;84;21015;-70
2022/09/22 06:04:10;;;;;;;6.53;5.92;;;;;;;10.69;79.61;100043.84;1668623;84;22553;-72
2022/09/22 06:06:36;;;;;;;6.67;6.00;;;;;;;10.75;79.69;100046.81;1678408;84;21105;-72
2022/09/22 06:09:04;;;;;;;7.20;5.87;;;;;;;10.87;79.85;100047.07;1691097;83;21007;-71
2022/09/22 06:11:31;;;;;;;7.83;5.97;;;;;;;10.99;79.87;100046.50;1679221;83;21016;-72
2022/09/22 06:13:58;;;;;;;8.13;5.67;;;;;;;11.14;79.98;100046.50;1689892;83;21034;-71
2022/09/22 06:16:24;;;;;;;6.22;5.20;;;;;;;11.28;79.84;100039.16;1691970;83;21790;-73
2022/09/22 06:18:52;;;;;;;7.78;5.62;;;;;;;11.37;79.50;100044.97;1693646;83;21112;-71
2022/09/22 06:21:19;;;;;;;8.20;5.70;;;;;;;11.43;79.40;100037.83;1690910;84;21510;-71
2022/09/22 06:23:46;;;;;;;5.25;4.70;;;;;;;11.52;79.33;100039.66;1673226;84;21042;-75
2022/09/22 06:26:13;;;;;;;5.40;4.53;;;;;;;11.62;79.12;100037.03;1678388;82;21006;-75
2022/09/22 06:28:39;;;;;;;7.35;4.25;;;;;;;11.69;78.97;100035.03;1695607;83;21430;-74
2022/09/22 06:31:05;;;;;;;8.20;4.15;;;;;;;11.80;78.83;100034.10;1687318;84;21083;-74
2022/09/22 06:33:32;;;;;;;7.70;4.05;;;;;;;11.92;78.67;100033.47;1678683;83;21032;-76
2022/09/22 06:36:00;;;;;;;5.72;3.90;;;;;;;12.03;78.16;100034.66;1686312;83;21427;-79
2022/09/22 06:38:30;;;;;;;4.37;3.50;;;;;;;12.11;77.50;100032.16;1685367;83;21062;-75
2022/09/22 06:41:00;;;;;;;4.47;3.42;;;;;;;12.16;77.25;100037.88;1685285;84;21995;-73
2022/09/22 06:43:26;;;;;;;5.47;3.40;;;;;;;12.23;76.78;100037.64;1689386;83;21521;-73
2022/09/22 06:45:58;;;;;;;4.28;3.60;;;;;;;12.28;76.16;100037.23;1680906;83;21028;-71
2022/09/22 06:48:24;;;;;;;6.17;4.22;;;;;;;12.27;75.61;100031.59;1677357;84;21382;-72
2022/09/22 06:50:52;;;;;;;5.58;3.50;;;;;;;12.28;75.37;100030.62;1683994;84;21063;-74
2022/09/22 06:53:19;;;;;;;4.03;3.62;;;;;;;12.30;75.15;100028.66;1682113;84;21471;-70
2022/09/22 06:55:46;;;;;;;4.78;4.03;;;;;;;12.35;74.79;100030.37;1673817;83;21035;-71
2022/09/22 06:58:14;;;;;;;6.35;3.77;;;;;;;12.35;74.61;100030.37;1668695;83;21083;-76
2022/09/22 07:00:42;;;;;;;6.83;3.60;;;;;;;12.38;74.48;100036.73;1678704;83;21052;-72
2022/09/22 07:03:21;;;;;;;3.98;3.37;;;;;;;12.43;74.28;100038.45;1670381;83;21038;-71
2022/09/22 07:05:59;;;;;;;5.28;3.77;;;;;;;12.47;73.89;100049.63;1682695;83;21875;-71
2022/09/22 07:08:28;;;;;;;6.30;3.75;;;;;;;12.45;73.56;100049.77;1679268;83;21091;-73
2022/09/22 07:10:58;;;;;;;7.00;3.80;;;;;;;12.48;73.40;100049.97;1665304;85;21069;-71
2022/09/22 07:13:28;;;;;;;4.20;3.65;;;;;;;12.53;73.42;100049.88;1675056;85;21115;-70
2022/09/22 07:16:02;;;;;;;5.55;3.90;;;;;;;12.61;73.06;100048.67;1678865;85;21094;-70
2022/09/22 07:18:29;;;;;;;4.42;4.00;;;;;;;12.70;72.54;100046.15;1664967;83;22588;-71
2022/09/22 07:21:22;;;;;;;7.67;3.77;;;;;;;12.80;72.14;100052.26;1683757;84;21476;-70
2022/09/22 07:23:48;;;;;;;4.70;3.70;;;;;;;12.91;72.14;100053.41;1683679;85;21051;-69
2022/09/22 07:26:18;;;;;;;7.42;4.20;;;;;;;13.10;71.81;100052.50;1683884;85;21059;-70
2022/09/22 07:28:49;;;;;;;8.53;3.98;;;;;;;13.24;71.31;100051.23;1682611;84;21122;-70
2022/09/22 07:31:14;;;;;;;8.15;3.77;;;;;;;13.38;70.67;100056.88;1682299;84;21879;-70
2022/09/22 07:33:42;;;;;;;6.47;3.45;;;;;;;13.50;70.24;100044.23;1684045;84;21011;-70
2022/09/22 07:36:20;;;;;;;6.28;3.85;;;;;;;13.65;70.14;100038.78;1682361;84;21025;-69
2022/09/22 07:38:51;;;;;;;6.33;3.77;;;;;;;13.78;68.93;100035.75;1683703;84;21518;-71
2022/09/22 07:41:26;;;;;;;7.62;4.05;;;;;;;13.84;68.96;100031.17;1683449;84;21115;-70
2022/09/22 07:45:11;;;;;;;7.72;4.10;;;;;;;13.93;68.36;100024.95;1678881;84;39756;-75
2022/09/22 07:46:29;;;;;;;7.58;4.37;;;;;;;13.99;68.00;100028.81;1679968;83;21425;-69
2022/09/22 07:48:56;;;;;;;7.33;3.90;;;;;;;14.11;67.43;100028.94;1677089;83;21112;-76
2022/09/22 07:51:23;;;;;;;6.65;3.85;;;;;;;14.13;66.42;100023.47;1681652;85;20984;-73
2022/09/22 07:54:17;;;;;;;9.10;4.00;;;;;;;14.14;65.57;100027.30;1678681;83;21023;-71
2022/09/22 07:56:57;;;;;;;7.87;3.98;;;;;;;14.17;65.62;100024.82;1658661;83;21059;-71
2022/09/22 07:59:24;;;;;;;5.58;3.45;;;;;;;14.23;65.30;100020.23;1675514;83;21038;-72
2022/09/22 08:01:52;;;;;;;5.08;3.65;;;;;;;14.22;65.09;100018.08;1671458;83;21051;-69
2022/09/22 08:04:22;;;;;;;6.55;3.40;;;;;;;14.27;65.21;100023.74;1673622;83;21042;-71
2022/09/22 08:06:51;;;;;;;5.08;2.90;;;;;;;14.36;64.93;100023.81;1682312;83;21023;-72
2022/09/22 08:09:37;;;;;;;5.40;3.02;;;;;;;14.32;63.78;100028.11;1664625;84;21916;-70
2022/09/22 08:12:04;;;;;;;4.42;2.87;;;;;;;14.17;63.69;100026.98;1673176;84;21057;-73
2022/09/22 08:14:31;;;;;;;5.17;3.10;;;;;;;14.12;63.67;100026.63;1671825;84;21089;-71
2022/09/22 08:16:58;;;;;;;2.98;2.37;;;;;;;14.17;63.28;100025.66;1676217;85;21092;-70
2022/09/22 08:19:24;;;;;;;3.85;2.42;;;;;;;14.28;63.45;100030.75;1682529;84;21106;-74
2022/09/22 08:21:52;;;;;;;4.83;2.58;;;;;;;14.39;63.25;100024.36;1678993;84;21816;-71
2022/09/22 08:24:20;;;;;;;5.00;2.30;;;;;;;14.55;63.32;100024.98;1681216;83;21110;-71
2022/09/22 08:26:48;;;;;;;5.37;3.00;;;;;;;14.75;62.85;100029.59;1687816;83;21008;-71
2022/09/22 08:29:17;;;;;;;7.42;2.65;;;;;;;14.92;62.49;100023.87;1682627;85;21445;-70
2022/09/22 08:31:46;;;;;;;5.28;2.70;;;;;;;15.04;62.04;100026.09;1687084;83;21048;-72
2022/09/22 08:34:16;;;;;;;4.97;3.27;;;;;;;15.10;60.77;100029.45;1684429;83;22686;-72
2022/09/22 08:36:47;;;;;;;3.80;3.12;;;;;;;14.98;59.78;100035.22;1682849;85;21008;-69
2022/09/22 08:39:15;;;;;;;4.53;3.30;;;;;;;14.87;60.21;100031.02;1680548;85;21063;-71
2022/09/22 08:42:08;;;;;;;5.03;3.60;;;;;;;14.87;60.02;100032.34;1658292;85;20975;-68
2022/09/22 08:44:56;;;;;;;4.83;3.70;;;;;;;14.89;60.27;100023.20;1684529;84;21015;-68
2022/09/22 08:53:22;;;;;;;4.10;3.70;;;;;;;14.99;59.96;100019.60;1660756;85;21093;-68
2022/09/22 08:56:23;;;;;;;6.37;3.90;;;;;;;15.10;59.64;100020.64;1645338;86;21024;-67
2022/09/22 08:59:11;;;;;;;4.05;3.67;;;;;;;15.16;59.40;100024.02;1654075;86;21551;-67
2022/09/22 09:02:08;;;;;;;5.83;3.60;;;;;;;15.15;59.26;100020.98;1639130;85;21993;-67
2022/09/22 09:05:01;;;;;;;7.17;3.33;;;;;;;15.09;58.90;100020.31;1651980;85;20968;-69
2022/09/22 09:07:57;;;;;;;4.28;3.20;;;;;;;15.02;58.58;100024.09;1653543;86;21004;-68
2022/09/22 09:11:06;;;;;;;4.42;3.10;;;;;;;15.06;58.38;100014.83;1630909;86;21044;-71
2022/09/22 09:14:04;;;;;;;4.50;3.12;;;;;;;15.14;57.98;100017.98;1640222;85;20968;-73
2022/09/22 09:16:55;;;;;;;4.65;3.27;;;;;;;15.31;58.27;100022.89;1646510;86;21893;-72
2022/09/22 09:19:50;;;;;;;3.65;3.27;;;;;;;15.33;57.95;100024.39;1643103;85;20980;-69
2022/09/22 09:22:27;;;;;;;4.17;3.17;;;;;;;15.39;58.41;100010.45;1634468;86;21039;-68
2022/09/22 09:25:10;;;;;;;3.30;2.77;;;;;;;15.61;58.66;100019.68;1676550;84;20983;-68
2022/09/22 09:27:41;;;;;;;3.05;2.62;;;;;;;15.80;57.71;100021.22;1674401;84;21077;-69
2022/09/22 09:30:17;;;;;;;3.90;2.70;;;;;;;15.87;57.26;100010.25;1670462;84;21857;-68
2022/09/22 09:32:52;;;;;;;3.87;3.47;;;;;;;16.05;56.95;100009.27;1691119;84;21483;-69
2022/09/22 09:35:36;;;;;;;2.72;2.52;;;;;;;16.29;57.60;100014.09;1691494;84;21438;-68
2022/09/22 09:38:03;;;;;;;2.72;2.20;;;;;;;16.49;57.33;100012.41;1657438;84;21605;-68
2022/09/22 09:40:29;;;;;;;2.27;1.87;;;;;;;16.58;55.95;100012.72;1619069;84;21485;-67
2022/09/22 09:43:03;;;;;;;2.72;2.05;;;;;;;16.53;56.08;100012.42;1691480;84;21960;-68
2022/09/22 09:45:50;;;;;;;3.08;1.87;;;;;;;16.42;55.64;100008.27;1696640;83;20890;-68
2022/09/22 09:48:40;;;;;;;4.10;2.70;;;;;;;16.37;56.06;100011.92;1627835;83;21031;-69
2022/09/22 09:51:11;;;;;;;2.50;2.30;;;;;;;16.39;55.75;100007.25;1686341;84;21042;-68
2022/09/22 09:53:46;;;;;;;4.47;2.80;;;;;;;16.43;56.15;100008.59;1663712;83;21101;-68
2022/09/22 09:56:26;;;;;;;4.90;2.80;;;;;;;16.42;55.50;100004.27;1640225;87;21994;-68
2022/09/22 10:01:50;;;;;;;3.42;3.12;;;;;;;16.29;56.18;100004.76;1686625;83;21055;-68
2022/09/22 10:04:29;;;;;;;6.72;3.80;;;;;;;16.16;56.29;100011.60;1685525;83;21047;-68
2022/09/22 10:07:17;;;;;;;4.03;3.33;;;;;;;16.19;56.54;100016.59;1686181;84;21052;-69
2022/09/22 10:09:47;;;;;;;10.65;4.33;;;;;;;16.22;56.34;100010.95;1658622;85;22450;-68
2022/09/22 10:12:28;;;;;;;15.08;4.33;;;;;;;16.21;56.60;100007.92;1658063;86;21028;-68
2022/09/22 10:14:57;;;;;;;5.55;3.08;;;;;;;16.16;56.88;100007.11;1697214;83;20981;-68
2022/09/22 10:17:40;;;;;;;4.65;2.83;;;;;;;16.09;57.31;100007.43;1703230;83;20984;-69
2022/09/22 10:20:19;;;;;;;4.95;3.80;;;;;;;16.21;57.59;100010.12;1658177;85;21031;-68
2022/09/22 10:22:46;;;;;;;5.12;3.37;;;;;;;16.45;57.16;100000.42;1655977;86;22029;-68
2022/09/22 10:25:23;;;;;;;7.65;4.12;;;;;;;16.56;55.96;100004.90;1656102;86;20998;-68
2022/09/22 10:28:16;;;;;;;7.92;5.08;;;;;;;16.40;55.25;100011.58;1675770;85;21059;-68
2022/09/22 10:30:44;;;;;;;7.35;4.17;;;;;;;16.38;54.88;99999.42;1655996;85;21590;-68
2022/09/22 10:33:19;;;;;;;6.12;4.28;;;;;;;16.59;55.46;100001.05;1656196;86;21482;-68
2022/09/22 10:36:08;;;;;;;8.03;4.35;;;;;;;16.95;55.50;99996.16;1656163;86;21954;-68
2022/09/22 10:38:38;;;;;;;8.28;4.47;;;;;;;17.32;54.67;100004.03;1661487;84;21457;-69
2022/09/22 10:41:29;;;;;;;8.38;4.22;;;;;;;17.46;52.27;100004.60;1657893;83;21047;-69
2022/09/22 10:44:00;;;;;;;6.22;4.72;;;;;;;17.37;52.93;100004.31;1656114;86;21056;-68
2022/09/22 10:46:52;;;;;;;4.70;4.10;;;;;;;17.29;52.50;100015.89;1694422;83;21447;-69
2022/09/22 10:49:52;;;;;;;7.15;4.50;;;;;;;17.15;53.15;100014.77;1661695;84;21844;-68
2022/09/22 10:52:41;;;;;;;5.37;4.80;;;;;;;17.26;54.01;100008.71;1683019;83;21542;-69
2022/09/22 10:55:26;;;;;;;9.23;5.22;;;;;;;17.41;53.34;100001.14;1696658;83;21529;-68
2022/09/22 10:58:08;;;;;;;6.95;4.17;;;;;;;17.66;53.20;99998.31;1687862;83;21445;-68
2022/09/22 11:00:39;;;;;;;5.70;4.78;;;;;;;17.86;51.86;100002.24;1714132;83;21401;-69
2022/09/22 11:03:53;;;;;;;5.17;4.67;;;;;;;17.94;52.02;100004.83;1714115;83;21928;-69
2022/09/22 11:12:27;;;;;;;4.33;3.92;;;;;;;18.07;49.88;100006.92;1687926;83;21528;-68
2022/09/22 11:15:16;;;;;;;4.62;3.58;;;;;;;17.94;49.80;100024.04;1667992;85;21006;-68
2022/09/22 11:18:14;;;;;;;4.00;3.62;;;;;;;17.82;50.61;100025.47;1698994;82;21821;-68
2022/09/22 11:20:44;;;;;;;4.72;4.30;;;;;;;17.73;50.15;100029.52;1716245;82;20957;-68
2022/09/22 11:23:30;;;;;;;6.72;4.00;;;;;;;17.49;50.94;100019.47;1705725;83;21035;-68
2022/09/22 11:26:05;;;;;;;7.92;4.30;;;;;;;17.35;51.24;100024.52;1690859;84;21441;-68
2022/09/22 11:28:54;;;;;;;5.40;4.28;;;;;;;17.23;52.12;100028.58;1684145;84;21011;-69
2022/09/22 11:32:02;;;;;;;4.17;3.75;;;;;;;17.16;51.79;100032.94;1690710;85;22485;-68
2022/09/22 11:34:53;;;;;;;4.42;3.80;;;;;;;17.05;52.02;100030.14;1694822;84;21050;-68
2022/09/22 11:37:27;;;;;;;6.12;3.30;;;;;;;16.96;52.59;100031.17;1689992;84;21009;-68
2022/09/22 11:40:19;;;;;;;4.33;3.17;;;;;;;16.86;51.48;100031.87;1684899;83;21027;-68
2022/09/22 11:43:08;;;;;;;7.05;3.58;;;;;;;16.68;51.39;100028.54;1690706;84;21445;-69
2022/09/22 11:46:05;;;;;;;3.83;3.50;;;;;;;16.60;51.96;100024.91;1680202;85;21863;-68
2022/09/22 11:49:15;;;;;;;4.75;3.50;;;;;;;16.52;51.92;100014.75;1666008;83;20975;-70
2022/09/22 11:51:50;;;;;;;3.75;3.45;;;;;;;16.72;53.27;100012.58;1676883;85;21077;-69
2022/09/22 11:54:26;;;;;;;3.50;3.20;;;;;;;17.10;52.16;100010.46;1677023;85;21020;-69
2022/09/22 11:56:58;;;;;;;3.15;2.85;;;;;;;17.14;50.42;100011.77;1682837;83;21075;-69
2022/09/22 11:59:55;;;;;;;4.30;3.87;;;;;;;17.00;50.08;100011.67;1690556;83;21831;-70
2022/09/22 12:02:45;;;;;;;4.35;3.75;;;;;;;16.94;50.77;100015.02;1706399;83;20943;-68
2022/09/22 12:05:29;;;;;;;4.20;3.80;;;;;;;16.96;51.03;100018.34;1663632;86;21484;-69
2022/09/22 12:08:04;;;;;;;3.67;3.37;;;;;;;16.95;51.15;100029.52;1664866;84;20988;-69
2022/09/22 12:10:37;;;;;;;4.08;3.58;;;;;;;16.90;50.75;100025.20;1664125;86;21003;-69
2022/09/22 12:13:08;;;;;;;4.10;3.72;;;;;;;16.80;51.18;100024.56;1679677;83;21586;-69
2022/09/22 12:15:48;;;;;;;3.67;3.37;;;;;;;16.74;51.49;100015.91;1693950;83;21030;-69